Date,TemperatureHighF,TemperatureAvgF,TemperatureLowF,DewpointHighF,DewpointAvgF,DewpointLowF,HumidityHigh,HumidityAvg,HumidityLow,PressureMaxIn,PressureMinIn,WindSpeedMaxMPH,WindSpeedAvgMPH,GustSpeedMaxMPH,PrecipitationSumIn
2013-9-1,63.7,58.7,54.0,59.6,50.7,44.1,88,75,68,29.94,29.87,23,9,23,0.00
2013-9-4,64.9,60.3,58.2,60.6,52.0,47.7,86,74,68,29.96,29.92,23,10,26,0.00
2013-9-5,68.0,60.6,56.6,60.2,53.5,46.2,86,77,67,30.01,29.92,28,9,28,0.00
2013-9-6,69.0,59.4,56.4,60.8,54.6,50.0,87,84,75,29.98,29.93,13,1,15,0.00
2013-9-7,88.9,69.4,54.2,62.0,53.4,44.1,84,58,36,29.85,29.78,18,7,25,0.00
2013-9-8,70.1,58.4,53.8,61.0,50.9,44.0,88,76,66,29.86,29.74,20,9,27,0.00
2013-9-9,76.1,59.6,52.6,60.3,50.8,43.8,86,73,58,29.81,29.69,21,8,30,0.00
2013-9-10,67.2,60.3,55.6,61.1,52.9,45.2,88,77,66,29.88,29.72,9,4,22,0.02
2013-9-11,69.0,62.4,59.8,59.7,57.1,55.0,87,83,71,29.98,29.88,3,1,15,0.00
2013-9-12,66.8,60.0,56.4,61.3,51.2,46.0,85,73,67,29.97,29.87,27,6,29,0.02
2013-9-13,57.9,55.5,53.4,52.3,46.3,43.5,82,71,68,29.90,29.74,31,15,33,0.01
2013-9-14,59.8,55.7,53.1,56.2,47.6,43.2,88,75,68,29.82,29.72,26,11,30,0.01
2013-9-15,66.0,59.4,54.5,59.0,52.4,46.4,86,78,66,29.86,29.76,22,8,23,0.00
2013-9-16,67.8,58.8,55.3,60.3,50.5,44.5,87,74,65,29.89,29.77,28,9,28,0.00
2013-9-17,62.4,58.7,54.8,56.6,51.0,44.3,86,76,67,29.88,29.81,30,9,33,0.00
2013-9-18,74.8,61.4,54.5,57.6,52.1,48.3,86,73,41,29.91,29.80,22,5,23,0.00
2013-9-19,81.5,62.2,53.1,59.2,52.1,46.8,85,71,46,29.85,29.73,24,7,26,0.00
2013-9-20,67.5,59.0,52.0,62.3,51.7,42.5,86,77,65,29.85,29.75,24,4,25,0.00
2013-9-21,62.6,59.3,55.9,58.0,51.8,46.9,86,77,67,29.89,29.79,18,2,19,0.60
2013-9-22,66.2,58.9,52.7,57.4,52.0,43.1,86,78,69,29.99,29.89,22,4,24,0.01
2013-9-23,77.8,62.5,56.1,61.4,55.0,47.1,86,77,50,30.01,29.92,20,5,21,0.00
2013-9-24,64.7,58.7,55.2,58.0,53.4,49.4,85,83,76,29.99,29.89,24,7,26,0.00
2013-9-25,63.7,57.0,53.2,52.0,49.4,46.1,85,76,64,29.93,29.81,24,6,27,0.00
2013-9-26,66.8,56.8,54.0,46.9,42.3,39.1,76,59,39,29.93,29.83,13,2,14,0.00
2013-9-27,75.3,64.5,55.1,49.4,42.4,35.8,81,46,27,30.08,29.97,18,5,20,0.00
2013-9-28,77.0,62.1,55.8,55.8,49.7,39.9,84,66,31,30.07,29.98,23,4,25,0.00
2013-9-29,69.7,62.1,56.0,61.6,54.9,46.8,84,77,70,30.09,30.03,14,2,15,0.00
2013-9-30,65.7,60.9,55.5,60.7,51.2,43.2,86,71,58,30.06,29.95,24,3,24,0.01